Main page
METAR-TAF:

METAR-TAF

Airports :

Carcassonne Airport

Carcassonne, France

latitude: 43-13N, longitude: 002-19E, elevation: 130 m

Current weather observation

The report was made 48 minutes ago, at 15:30 UTC
Wind 21 kt from the East
Temperature 17°C
Humidity 45%
Pressure 1017 hPa
Visibility 10 km or more
no clouds below 1500 m and no cumulonimbus

METAR: LFMK 041530Z AUTO 08021KT CAVOK 17/05 Q1017 TEMPO 08015G25KT

Time: 18:18 (16:18 UTC)

Forecast

The report was made 2 hours and 18 minutes ago, at 14:00 UTC
Forecast valid from 04 at 15 UTC to 05 at 15 UTC
Wind 15 kt from the East
Visibility 10 km or more
no clouds below 1500 m and no cumulonimbus
Temporary
from 04 at 15 UTC to 04 at 22 UTC
Wind 15 kt from the East with gusts up to 25 kt
Temporary
from 05 at 08 UTC to 05 at 15 UTC
Wind 20 kt from the East with gusts up to 35 kt

TAF: LFMK 041400Z 0415/0515 08015KT CAVOK TEMPO 0415/0422 08015G25KT TEMPO 0508/0515 10020G35KT

Weather observations and forecasts of more than 4000 airports (METAR and TAF reports).

The available stations are represented by yellow and red dots on the map.

Hover mouse over dot to see the name of the station.

Then click to see weather observations and forecasts.

To change the map : click on the green buttons with a black cross to zoom in, on the green button with a dash to zoom out, or on the green arrows for adjacent maps.


METAR-TAF: